ADDS METAR Data INFO
IDs: Format: Raw Decoded Include TAF

Data at: 2024 UTC 16 Dec 2017

KLUA 162015Z AUTO 18009G14KT 10SM CLR 09/M03 A3004 RMK AO2
KLUA 161955Z AUTO 19009KT 10SM CLR 09/M04 A3004 RMK AO2
KLUA 161935Z AUTO 19010G14KT 10SM CLR 09/M04 A3004 RMK AO2
KLUA 161915Z AUTO 20010G16KT 10SM CLR 08/M04 A3004 RMK AO2
KLUA 161855Z AUTO 20011KT 10SM CLR 08/M04 A3004 RMK AO2
KLUA 161835Z AUTO 20008G15KT 10SM CLR 07/M05 A3004 RMK AO2
KLUA 161815Z AUTO 20010G15KT 10SM CLR 07/M05 A3005 RMK AO2
KLUA 161755Z AUTO 20011G16KT 10SM CLR 07/M05 A3005 RMK AO2
KLUA 161735Z AUTO 19008G17KT 10SM CLR 07/M05 A3006 RMK AO2
KLUA 161715Z AUTO 19011G16KT 10SM CLR 06/M05 A3007 RMK AO2
KLUA 161655Z AUTO 19011G17KT 10SM CLR 06/M05 A3007 RMK AO2
KLUA 161635Z AUTO 20009KT 10SM CLR 06/M05 A3008 RMK AO2
KLUA 161615Z AUTO 20011G16KT 10SM CLR 05/M05 A3009 RMK AO2
KLUA 161555Z AUTO 19010G16KT 10SM CLR 05/M05 A3009 RMK AO2
KLUA 161535Z AUTO 20010KT 10SM CLR 04/M06 A3010 RMK AO2
KLUA 161515Z AUTO 19011G15KT 10SM CLR 03/M06 A3011 RMK AO2
KLUA 161455Z AUTO 19010KT 10SM CLR 03/M05 A3011 RMK AO2
KLUA 161435Z AUTO 22006KT 10SM CLR 02/M05 A3011 RMK AO2
KLUA 161415Z AUTO 20008KT 10SM CLR 01/M06 A3010 RMK AO2
KLUA 161355Z AUTO 00000KT 10SM CLR 00/M06 A3011 RMK AO2
KLUA 161335Z AUTO 20003KT 10SM SCT050 00/M06 A3011 RMK AO2
KLUA 161315Z AUTO 22004KT 10SM BKN050 BKN100 M01/M06 A3011 RMK AO2
KLUA 161255Z AUTO 21003KT 10SM SCT100 M02/M06 A3011 RMK AO2
KLUA 161235Z AUTO 18004KT 10SM SCT100 M02/M06 A3011 RMK AO2
KLUA 161215Z AUTO 21007KT 10SM CLR M01/M06 A3011 RMK AO2
KLUA 161155Z AUTO 20006KT 10SM CLR M01/M07 A3009 RMK AO2
KLUA 161135Z AUTO 21007KT 10SM CLR M01/M07 A3009 RMK AO2
KLUA 161115Z AUTO 17003KT 10SM CLR 00/M07 A3008 RMK AO2
KLUA 161055Z AUTO 17004KT 10SM CLR 00/M07 A3009 RMK AO2
KLUA 161035Z AUTO 00000KT 10SM CLR 00/M07 A3008 RMK AO2
KLUA 161015Z AUTO 24005KT 10SM SCT048 00/M07 A3007 RMK AO2
KLUA 160955Z AUTO 24010G15KT 10SM OVC046 00/M07 A3007 RMK AO2
KLUA 160935Z AUTO 17004KT 10SM OVC046 00/M07 A3006 RMK AO2
KLUA 160915Z AUTO 18005KT 10SM OVC044 00/M07 A3006 RMK AO2
KLUA 160855Z AUTO 16004KT 10SM OVC046 00/M07 A3005 RMK AO2
KLUA 160835Z AUTO 23004KT 10SM OVC048 00/M07 A3005 RMK AO2
KLUA 160815Z AUTO 23003KT 10SM OVC048 00/M07 A3005 RMK AO2
KLUA 160755Z AUTO 20005KT 10SM OVC048 00/M07 A3005 RMK AO2
KLUA 160735Z AUTO 20004KT 10SM OVC050 00/M07 A3004 RMK AO2
KLUA 160715Z AUTO 00000KT 10SM OVC050 M01/M07 A3003 RMK AO2
KLUA 160655Z AUTO 21003KT 10SM BKN050 00/M07 A3003 RMK AO2
KLUA 160635Z AUTO 20003KT 10SM SCT050 00/M07 A3002 RMK AO2
KLUA 160615Z AUTO 24006KT 7SM CLR 00/M07 A3002 RMK AO2
KLUA 160555Z AUTO 24006KT 10SM CLR 00/M07 A3001 RMK AO2
KLUA 160535Z AUTO 25005KT 10SM CLR 00/M08 A3001 RMK AO2
KLUA 160515Z AUTO 26006G15KT 10SM CLR 00/M08 A3001 RMK AO2
KLUA 160455Z AUTO 26009G15KT 10SM CLR 00/M08 A3001 RMK AO2
KLUA 160435Z AUTO 24009KT 10SM SCT050 00/M08 A3001 RMK AO2
KLUA 160415Z AUTO 24010KT 10SM CLR 00/M08 A3000 RMK AO2
KLUA 160355Z AUTO 25009KT 10SM CLR 00/M08 A2999 RMK AO2
KLUA 160335Z AUTO 24007KT 10SM CLR 00/M08 A2999 RMK AO2
KLUA 160315Z AUTO 24007KT 10SM CLR 00/M08 A2998 RMK AO2
KLUA 160255Z AUTO 26007G15KT 10SM CLR 00/M08 A2998 RMK AO2
KLUA 160235Z AUTO 26010G15KT 10SM CLR 00/M07 A2997 RMK AO2
KLUA 160215Z AUTO 21003KT 10SM CLR M01/M07 A2997 RMK AO2
KLUA 160155Z AUTO 17003KT 10SM CLR 00/M07 A2997 RMK AO2
KLUA 160135Z AUTO 25009G14KT 10SM CLR 00/M07 A2996 RMK AO2
KLUA 160115Z AUTO 23006KT 10SM CLR 00/M07 A2996 RMK AO2
KLUA 160055Z AUTO 24006KT 10SM CLR M01/M07 A2996 RMK AO2
KLUA 160035Z AUTO 23004KT 10SM SCT050 M01/M06 A2996 RMK AO2
KLUA 160015Z AUTO 19003KT 10SM SCT048 M02/M05 A2995 RMK AO2
KLUA 152355Z AUTO 00000KT 10SM SCT047 M02/M04 A2995 RMK AO2
KLUA 152335Z AUTO 24003KT 10SM SCT049 M02/M04 A2995 RMK AO2
KLUA 152315Z AUTO 00000KT 10SM SCT049 M02/M04 A2992 RMK AO2
KLUA 152255Z AUTO 13003KT 10SM CLR M03/M05 A2991 RMK AO2
KLUA 152235Z AUTO 00000KT 10SM CLR M03/M05 A2991 RMK AO2
KLUA 152215Z AUTO 22003KT 10SM CLR M01/M04 A2989 RMK AO2
KLUA 152155Z AUTO 23003KT 10SM SCT043 M01/M04 A2989 RMK AO2
KLUA 152135Z AUTO 24003KT 10SM OVC041 00/M04 A2989 RMK AO2
KLUA 152115Z AUTO 21004KT 10SM BKN043 OVC050 00/M03 A2989 RMK AO2
KLUA 152055Z AUTO 19003KT 10SM SCT036 BKN044 OVC050 00/M03 A2989 RMK AO2
KLUA 152035Z AUTO 20003KT 10SM BKN035 OVC044 00/M03 A2989 RMK AO2
KLUA 152015Z AUTO 00000KT 10SM BKN040 OVC046 00/M03 A2989 RMK AO2
KLUA 151955Z AUTO 22004KT 10SM BKN040 OVC048 00/M03 A2989 RMK AO2
KLUA 151935Z AUTO 00000KT 10SM OVC050 00/M03 A2989 RMK AO2
KLUA 151915Z AUTO 00000KT 10SM SCT037 OVC046 00/M03 A2989 RMK AO2
KLUA 151855Z AUTO 00000KT 7SM SCT031 OVC037 M01/M04 A2989 RMK AO2
KLUA 151835Z AUTO 00000KT 10SM OVC029 M01/M05 A2989 RMK AO2
KLUA 151815Z AUTO 00000KT 10SM OVC027 M01/M05 A2991 RMK AO2
KLUA 151755Z AUTO 00000KT 10SM OVC027 M01/M05 A2991 RMK AO2
KLUA 151735Z AUTO 00000KT 10SM OVC027 M01/M06 A2991 RMK AO2
KLUA 151715Z AUTO 00000KT 10SM OVC029 M01/M06 A2992 RMK AO2
KLUA 151655Z AUTO 00000KT 10SM BKN029 OVC034 M01/M06 A2995 RMK AO2
KLUA 151635Z AUTO 13003KT 7SM SCT029 OVC034 M01/M06 A2996 RMK AO2
KLUA 151615Z AUTO 00000KT 10SM BKN029 OVC035 M01/M07 A2997 RMK AO2
KLUA 151555Z AUTO 00000KT 10SM BKN033 OVC040 M01/M06 A2999 RMK AO2
KLUA 151535Z AUTO 00000KT 10SM BKN031 OVC042 M01/M07 A2999 RMK AO2
KLUA 151515Z AUTO 00000KT 10SM OVC033 M01/M07 A2999 RMK AO2
KLUA 151455Z AUTO 00000KT 10SM OVC033 M01/M07 A3001 RMK AO2
KLUA 151435Z AUTO 00000KT 10SM BKN035 OVC046 M02/M07 A3001 RMK AO2
KLUA 151415Z AUTO 00000KT 10SM OVC044 M02/M07 A3001 RMK AO2
KLUA 151355Z AUTO 00000KT 10SM OVC044 M02/M07 A3001 RMK AO2
KLUA 151335Z AUTO 00000KT 10SM OVC044 M02/M07 A3001 RMK AO2
KLUA 151315Z AUTO 00000KT 10SM OVC044 M02/M07 A3001 RMK AO2
KLUA 151255Z AUTO 00000KT 10SM OVC042 M02/M07 A3002 RMK AO2
KLUA 151235Z AUTO 00000KT 10SM OVC042 M02/M07 A3002 RMK AO2
KLUA 151215Z AUTO 00000KT 10SM OVC042 M02/M07 A3002 RMK AO2
KLUA 151155Z AUTO 00000KT 10SM OVC042 M02/M08 A3003 RMK AO2
KLUA 151135Z AUTO 00000KT 10SM OVC042 M02/M08 A3003 RMK AO2
KLUA 151115Z AUTO 00000KT 10SM OVC042 M02/M08 A3003 RMK AO2
KLUA 151055Z AUTO 00000KT 10SM OVC042 M02/M08 A3004 RMK AO2
KLUA 151035Z AUTO 00000KT 10SM OVC042 M02/M08 A3004 RMK AO2
KLUA 151015Z AUTO 00000KT 10SM OVC042 M02/M08 A3004 RMK AO2
KLUA 150955Z AUTO 00000KT 10SM OVC042 M02/M08 A3004 RMK AO2
KLUA 150935Z AUTO 00000KT 10SM OVC042 M03/M08 A3004 RMK AO2
KLUA 150915Z AUTO 00000KT 10SM OVC042 M03/M08 A3005 RMK AO2
KLUA 150855Z AUTO 02003KT 10SM OVC044 M03/M08 A3005 RMK AO2
KLUA 150835Z AUTO 00000KT 10SM OVC044 M03/M08 A3006 RMK AO2